sensor_id;sensor_type;location;lat;lon;timestamp;temperature;humidity
24410;DHT22;12543;53.364;-1.504;2022-10-16T00:01:21;10.60;99.90
24410;DHT22;12543;53.364;-1.504;2022-10-16T00:03:49;10.60;99.90
24410;DHT22;12543;53.364;-1.504;2022-10-16T00:06:18;10.60;99.90
24410;DHT22;12543;53.364;-1.504;2022-10-16T00:08:46;10.60;99.90
24410;DHT22;12543;53.364;-1.504;2022-10-16T00:11:16;10.60;99.90
24410;DHT22;12543;53.364;-1.504;2022-10-16T00:13:45;10.60;99.90
24410;DHT22;12543;53.364;-1.504;2022-10-16T00:16:13;10.60;99.90
24410;DHT22;12543;53.364;-1.504;2022-10-16T00:18:40;10.60;99.90
24410;DHT22;12543;53.364;-1.504;2022-10-16T00:21:14;10.60;99.90
24410;DHT22;12543;53.364;-1.504;2022-10-16T00:23:41;10.60;99.90
24410;DHT22;12543;53.364;-1.504;2022-10-16T00:26:14;10.60;99.90
24410;DHT22;12543;53.364;-1.504;2022-10-16T00:28:41;10.60;99.90
24410;DHT22;12543;53.364;-1.504;2022-10-16T00:31:10;10.60;99.90
24410;DHT22;12543;53.364;-1.504;2022-10-16T00:33:39;10.60;99.90
24410;DHT22;12543;53.364;-1.504;2022-10-16T00:36:06;10.60;99.90
24410;DHT22;12543;53.364;-1.504;2022-10-16T00:38:34;10.60;99.90
24410;DHT22;12543;53.364;-1.504;2022-10-16T00:41:01;10.60;99.90
24410;DHT22;12543;53.364;-1.504;2022-10-16T00:43:41;10.60;99.90
24410;DHT22;12543;53.364;-1.504;2022-10-16T00:46:35;10.60;99.90
24410;DHT22;12543;53.364;-1.504;2022-10-16T00:49:17;10.60;99.90
24410;DHT22;12543;53.364;-1.504;2022-10-16T00:51:47;10.60;99.90
24410;DHT22;12543;53.364;-1.504;2022-10-16T00:54:30;10.60;99.90
24410;DHT22;12543;53.364;-1.504;2022-10-16T00:57:00;10.60;99.90
24410;DHT22;12543;53.364;-1.504;2022-10-16T00:59:32;10.60;99.90
24410;DHT22;12543;53.364;-1.504;2022-10-16T01:02:00;10.60;99.90
24410;DHT22;12543;53.364;-1.504;2022-10-16T01:04:32;10.60;99.90
24410;DHT22;12543;53.364;-1.504;2022-10-16T01:07:20;10.60;99.90
24410;DHT22;12543;53.364;-1.504;2022-10-16T01:21:04;10.60;99.90
24410;DHT22;12543;53.364;-1.504;2022-10-16T01:23:43;10.60;99.90
24410;DHT22;12543;53.364;-1.504;2022-10-16T01:26:36;10.60;99.90
24410;DHT22;12543;53.364;-1.504;2022-10-16T01:29:29;10.60;99.90
24410;DHT22;12543;53.364;-1.504;2022-10-16T01:32:01;10.60;99.90
24410;DHT22;12543;53.364;-1.504;2022-10-16T01:34:38;10.60;99.90
24410;DHT22;12543;53.364;-1.504;2022-10-16T01:37:12;10.60;99.90
24410;DHT22;12543;53.364;-1.504;2022-10-16T01:39:42;10.60;99.90
24410;DHT22;12543;53.364;-1.504;2022-10-16T01:42:19;10.60;99.90
24410;DHT22;12543;53.364;-1.504;2022-10-16T01:44:47;10.60;99.90
24410;DHT22;12543;53.364;-1.504;2022-10-16T01:47:15;10.60;99.90
24410;DHT22;12543;53.364;-1.504;2022-10-16T01:49:45;10.60;99.90
24410;DHT22;12543;53.364;-1.504;2022-10-16T01:52:41;10.60;99.90
24410;DHT22;12543;53.364;-1.504;2022-10-16T01:55:10;10.60;99.90
24410;DHT22;12543;53.364;-1.504;2022-10-16T01:57:42;10.60;99.90
24410;DHT22;12543;53.364;-1.504;2022-10-16T02:00:13;10.60;99.90
24410;DHT22;12543;53.364;-1.504;2022-10-16T02:02:43;10.60;99.90
24410;DHT22;12543;53.364;-1.504;2022-10-16T02:08:03;10.50;99.90
24410;DHT22;12543;53.364;-1.504;2022-10-16T02:10:32;10.50;99.90
24410;DHT22;12543;53.364;-1.504;2022-10-16T02:13:26;10.40;99.90
24410;DHT22;12543;53.364;-1.504;2022-10-16T02:15:54;10.40;99.90
24410;DHT22;12543;53.364;-1.504;2022-10-16T02:18:21;10.40;99.90
24410;DHT22;12543;53.364;-1.504;2022-10-16T02:21:02;10.40;99.90
24410;DHT22;12543;53.364;-1.504;2022-10-16T02:27:00;10.30;99.90
24410;DHT22;12543;53.364;-1.504;2022-10-16T02:29:31;10.30;99.90
24410;DHT22;12543;53.364;-1.504;2022-10-16T02:32:02;10.30;99.90
24410;DHT22;12543;53.364;-1.504;2022-10-16T02:34:32;10.30;99.90
24410;DHT22;12543;53.364;-1.504;2022-10-16T02:37:01;10.30;99.90
24410;DHT22;12543;53.364;-1.504;2022-10-16T02:39:30;10.30;99.90
24410;DHT22;12543;53.364;-1.504;2022-10-16T02:41:57;10.30;99.90
24410;DHT22;12543;53.364;-1.504;2022-10-16T02:44:25;10.30;99.90
24410;DHT22;12543;53.364;-1.504;2022-10-16T02:46:52;10.30;99.90
24410;DHT22;12543;53.364;-1.504;2022-10-16T02:49:19;10.30;99.90
24410;DHT22;12543;53.364;-1.504;2022-10-16T02:51:46;10.30;99.90
24410;DHT22;12543;53.364;-1.504;2022-10-16T02:54:13;10.30;99.90
24410;DHT22;12543;53.364;-1.504;2022-10-16T02:56:40;10.30;99.90
24410;DHT22;12543;53.364;-1.504;2022-10-16T02:59:07;10.30;99.90
24410;DHT22;12543;53.364;-1.504;2022-10-16T03:01:35;10.30;99.90
24410;DHT22;12543;53.364;-1.504;2022-10-16T03:04:03;10.30;99.90
24410;DHT22;12543;53.364;-1.504;2022-10-16T03:06:30;10.30;99.90
24410;DHT22;12543;53.364;-1.504;2022-10-16T03:08:57;10.40;99.90
24410;DHT22;12543;53.364;-1.504;2022-10-16T03:11:24;10.40;99.90
24410;DHT22;12543;53.364;-1.504;2022-10-16T03:13:51;10.40;99.90
24410;DHT22;12543;53.364;-1.504;2022-10-16T03:16:18;10.40;99.90
24410;DHT22;12543;53.364;-1.504;2022-10-16T03:18:48;10.40;99.90
24410;DHT22;12543;53.364;-1.504;2022-10-16T03:21:16;10.40;99.90
24410;DHT22;12543;53.364;-1.504;2022-10-16T03:23:43;10.40;99.90
24410;DHT22;12543;53.364;-1.504;2022-10-16T03:26:10;10.40;99.90
24410;DHT22;12543;53.364;-1.504;2022-10-16T03:28:37;10.40;99.90
24410;DHT22;12543;53.364;-1.504;2022-10-16T03:31:04;10.40;99.90
24410;DHT22;12543;53.364;-1.504;2022-10-16T03:33:31;10.50;99.90
24410;DHT22;12543;53.364;-1.504;2022-10-16T03:35:58;10.50;99.90
24410;DHT22;12543;53.364;-1.504;2022-10-16T03:38:25;10.50;99.90
24410;DHT22;12543;53.364;-1.504;2022-10-16T03:40:52;10.50;99.90
24410;DHT22;12543;53.364;-1.504;2022-10-16T03:43:20;10.50;99.90
24410;DHT22;12543;53.364;-1.504;2022-10-16T03:45:47;10.50;99.90
24410;DHT22;12543;53.364;-1.504;2022-10-16T03:48:14;10.50;99.90
24410;DHT22;12543;53.364;-1.504;2022-10-16T03:50:41;10.50;99.90
24410;DHT22;12543;53.364;-1.504;2022-10-16T03:53:08;10.40;99.90
24410;DHT22;12543;53.364;-1.504;2022-10-16T03:55:36;10.40;99.90
24410;DHT22;12543;53.364;-1.504;2022-10-16T03:58:03;10.40;99.90
24410;DHT22;12543;53.364;-1.504;2022-10-16T04:00:30;10.40;99.90
24410;DHT22;12543;53.364;-1.504;2022-10-16T04:02:57;10.40;99.90
24410;DHT22;12543;53.364;-1.504;2022-10-16T04:05:24;10.40;99.90
24410;DHT22;12543;53.364;-1.504;2022-10-16T04:07:51;10.40;99.90
24410;DHT22;12543;53.364;-1.504;2022-10-16T04:10:18;10.30;99.90
24410;DHT22;12543;53.364;-1.504;2022-10-16T04:12:45;10.30;99.90
24410;DHT22;12543;53.364;-1.504;2022-10-16T04:15:12;10.30;99.90
24410;DHT22;12543;53.364;-1.504;2022-10-16T04:17:39;10.30;99.90
24410;DHT22;12543;53.364;-1.504;2022-10-16T04:20:06;10.30;99.90
24410;DHT22;12543;53.364;-1.504;2022-10-16T04:22:33;10.30;99.90
24410;DHT22;12543;53.364;-1.504;2022-10-16T04:25:00;10.30;99.90
24410;DHT22;12543;53.364;-1.504;2022-10-16T04:27:27;10.30;99.90
24410;DHT22;12543;53.364;-1.504;2022-10-16T04:29:56;10.30;99.90
24410;DHT22;12543;53.364;-1.504;2022-10-16T04:32:23;10.30;99.90
24410;DHT22;12543;53.364;-1.504;2022-10-16T04:34:50;10.20;99.90
24410;DHT22;12543;53.364;-1.504;2022-10-16T04:37:17;10.20;99.90
24410;DHT22;12543;53.364;-1.504;2022-10-16T04:39:44;10.20;99.90
24410;DHT22;12543;53.364;-1.504;2022-10-16T04:42:11;10.20;99.90
24410;DHT22;12543;53.364;-1.504;2022-10-16T04:44:38;10.10;99.90
24410;DHT22;12543;53.364;-1.504;2022-10-16T04:47:05;10.10;99.90
24410;DHT22;12543;53.364;-1.504;2022-10-16T04:49:32;10.10;99.90
24410;DHT22;12543;53.364;-1.504;2022-10-16T04:51:59;10.10;99.90
24410;DHT22;12543;53.364;-1.504;2022-10-16T04:54:26;10.10;99.90
24410;DHT22;12543;53.364;-1.504;2022-10-16T04:56:53;10.00;99.90
24410;DHT22;12543;53.364;-1.504;2022-10-16T04:59:21;10.00;99.90
24410;DHT22;12543;53.364;-1.504;2022-10-16T05:01:49;10.00;99.90
24410;DHT22;12543;53.364;-1.504;2022-10-16T05:04:16;10.00;99.90
24410;DHT22;12543;53.364;-1.504;2022-10-16T05:06:43;9.90;99.90
24410;DHT22;12543;53.364;-1.504;2022-10-16T05:09:10;9.90;99.90
24410;DHT22;12543;53.364;-1.504;2022-10-16T05:11:37;9.90;99.90
24410;DHT22;12543;53.364;-1.504;2022-10-16T05:14:07;9.90;99.90
24410;DHT22;12543;53.364;-1.504;2022-10-16T05:16:34;9.90;99.90
24410;DHT22;12543;53.364;-1.504;2022-10-16T05:19:01;9.80;99.90
24410;DHT22;12543;53.364;-1.504;2022-10-16T05:21:48;9.80;99.90
24410;DHT22;12543;53.364;-1.504;2022-10-16T05:24:15;9.80;99.90
24410;DHT22;12543;53.364;-1.504;2022-10-16T05:26:42;9.80;99.90
24410;DHT22;12543;53.364;-1.504;2022-10-16T05:29:09;9.70;99.90
24410;DHT22;12543;53.364;-1.504;2022-10-16T05:31:36;9.70;99.90
24410;DHT22;12543;53.364;-1.504;2022-10-16T05:34:04;9.70;99.90
24410;DHT22;12543;53.364;-1.504;2022-10-16T05:36:31;9.60;99.90
24410;DHT22;12543;53.364;-1.504;2022-10-16T05:38:58;9.60;99.90
24410;DHT22;12543;53.364;-1.504;2022-10-16T05:41:25;9.60;99.90
24410;DHT22;12543;53.364;-1.504;2022-10-16T05:43:53;9.50;99.90
24410;DHT22;12543;53.364;-1.504;2022-10-16T05:46:20;9.50;99.90
24410;DHT22;12543;53.364;-1.504;2022-10-16T05:48:47;9.50;99.90
24410;DHT22;12543;53.364;-1.504;2022-10-16T05:51:14;9.40;99.90
24410;DHT22;12543;53.364;-1.504;2022-10-16T05:53:43;9.40;99.90
24410;DHT22;12543;53.364;-1.504;2022-10-16T05:56:15;9.40;99.90
24410;DHT22;12543;53.364;-1.504;2022-10-16T05:58:42;9.40;99.90
24410;DHT22;12543;53.364;-1.504;2022-10-16T06:01:18;9.30;99.90
24410;DHT22;12543;53.364;-1.504;2022-10-16T06:03:47;9.30;99.90
24410;DHT22;12543;53.364;-1.504;2022-10-16T06:06:22;9.30;99.90
24410;DHT22;12543;53.364;-1.504;2022-10-16T06:08:49;9.30;99.90
24410;DHT22;12543;53.364;-1.504;2022-10-16T06:11:19;9.20;99.90
24410;DHT22;12543;53.364;-1.504;2022-10-16T06:13:49;9.20;99.90
24410;DHT22;12543;53.364;-1.504;2022-10-16T06:16:17;9.20;99.90
24410;DHT22;12543;53.364;-1.504;2022-10-16T06:18:45;9.20;99.90
24410;DHT22;12543;53.364;-1.504;2022-10-16T06:21:16;9.10;99.90
24410;DHT22;12543;53.364;-1.504;2022-10-16T06:23:43;9.10;99.90
24410;DHT22;12543;53.364;-1.504;2022-10-16T06:26:19;9.10;99.90
24410;DHT22;12543;53.364;-1.504;2022-10-16T06:28:47;9.10;99.90
24410;DHT22;12543;53.364;-1.504;2022-10-16T06:31:14;9.10;99.90
24410;DHT22;12543;53.364;-1.504;2022-10-16T06:33:41;9.00;99.90
24410;DHT22;12543;53.364;-1.504;2022-10-16T06:36:15;9.00;99.90
24410;DHT22;12543;53.364;-1.504;2022-10-16T06:38:44;9.00;99.90
24410;DHT22;12543;53.364;-1.504;2022-10-16T06:41:13;9.00;99.90
24410;DHT22;12543;53.364;-1.504;2022-10-16T06:43:40;9.00;99.90
24410;DHT22;12543;53.364;-1.504;2022-10-16T06:46:10;9.00;99.90
24410;DHT22;12543;53.364;-1.504;2022-10-16T06:48:37;9.00;99.90
24410;DHT22;12543;53.364;-1.504;2022-10-16T06:51:08;9.00;99.90
24410;DHT22;12543;53.364;-1.504;2022-10-16T06:53:40;8.90;99.90
24410;DHT22;12543;53.364;-1.504;2022-10-16T06:56:28;8.90;99.90
24410;DHT22;12543;53.364;-1.504;2022-10-16T06:58:57;8.90;99.90
24410;DHT22;12543;53.364;-1.504;2022-10-16T07:01:24;8.90;99.90
24410;DHT22;12543;53.364;-1.504;2022-10-16T07:03:51;8.90;99.90
24410;DHT22;12543;53.364;-1.504;2022-10-16T07:06:23;8.90;99.90
24410;DHT22;12543;53.364;-1.504;2022-10-16T07:08:51;8.90;99.90
24410;DHT22;12543;53.364;-1.504;2022-10-16T07:11:21;8.90;99.90
24410;DHT22;12543;53.364;-1.504;2022-10-16T07:13:50;8.90;99.90
24410;DHT22;12543;53.364;-1.504;2022-10-16T07:16:24;8.90;99.90
24410;DHT22;12543;53.364;-1.504;2022-10-16T07:18:54;8.90;99.90
24410;DHT22;12543;53.364;-1.504;2022-10-16T07:21:26;8.80;99.90
24410;DHT22;12543;53.364;-1.504;2022-10-16T07:23:56;8.90;99.90
24410;DHT22;12543;53.364;-1.504;2022-10-16T07:26:24;8.90;99.90
24410;DHT22;12543;53.364;-1.504;2022-10-16T07:28:51;8.90;99.90
24410;DHT22;12543;53.364;-1.504;2022-10-16T07:31:20;8.90;99.90
24410;DHT22;12543;53.364;-1.504;2022-10-16T07:33:47;8.90;99.90
24410;DHT22;12543;53.364;-1.504;2022-10-16T07:36:16;9.00;99.90
24410;DHT22;12543;53.364;-1.504;2022-10-16T07:38:44;9.00;99.90
24410;DHT22;12543;53.364;-1.504;2022-10-16T07:41:14;9.00;99.90
24410;DHT22;12543;53.364;-1.504;2022-10-16T07:43:49;9.00;99.90
24410;DHT22;12543;53.364;-1.504;2022-10-16T07:46:17;9.00;99.90
24410;DHT22;12543;53.364;-1.504;2022-10-16T07:48:44;9.00;99.90
24410;DHT22;12543;53.364;-1.504;2022-10-16T07:51:16;9.00;99.90
24410;DHT22;12543;53.364;-1.504;2022-10-16T07:53:43;9.10;99.90
24410;DHT22;12543;53.364;-1.504;2022-10-16T07:56:10;9.10;99.90
24410;DHT22;12543;53.364;-1.504;2022-10-16T07:58:39;9.10;99.90
24410;DHT22;12543;53.364;-1.504;2022-10-16T08:01:09;9.10;99.90
24410;DHT22;12543;53.364;-1.504;2022-10-16T08:03:37;9.10;99.90
24410;DHT22;12543;53.364;-1.504;2022-10-16T08:06:04;9.10;99.90
24410;DHT22;12543;53.364;-1.504;2022-10-16T08:08:31;9.10;99.90
24410;DHT22;12543;53.364;-1.504;2022-10-16T08:10:58;9.20;99.90
24410;DHT22;12543;53.364;-1.504;2022-10-16T08:13:26;9.20;99.90
24410;DHT22;12543;53.364;-1.504;2022-10-16T08:15:54;9.30;99.90
24410;DHT22;12543;53.364;-1.504;2022-10-16T08:18:21;9.30;99.90
24410;DHT22;12543;53.364;-1.504;2022-10-16T08:20:54;9.30;99.90
24410;DHT22;12543;53.364;-1.504;2022-10-16T08:23:21;9.30;99.90
24410;DHT22;12543;53.364;-1.504;2022-10-16T08:25:48;9.40;99.90
24410;DHT22;12543;53.364;-1.504;2022-10-16T08:28:15;9.40;99.90
24410;DHT22;12543;53.364;-1.504;2022-10-16T08:30:43;9.40;99.90
24410;DHT22;12543;53.364;-1.504;2022-10-16T08:33:10;9.50;99.90
24410;DHT22;12543;53.364;-1.504;2022-10-16T08:35:37;9.50;99.90
24410;DHT22;12543;53.364;-1.504;2022-10-16T08:38:05;9.60;99.90
24410;DHT22;12543;53.364;-1.504;2022-10-16T08:40:34;9.60;99.90
24410;DHT22;12543;53.364;-1.504;2022-10-16T08:48:41;9.80;99.90
24410;DHT22;12543;53.364;-1.504;2022-10-16T08:51:15;10.00;99.90
24410;DHT22;12543;53.364;-1.504;2022-10-16T08:56:19;10.20;99.90
24410;DHT22;12543;53.364;-1.504;2022-10-16T08:58:46;10.30;99.90
24410;DHT22;12543;53.364;-1.504;2022-10-16T09:01:15;10.40;99.90
24410;DHT22;12543;53.364;-1.504;2022-10-16T09:03:53;10.40;99.90
24410;DHT22;12543;53.364;-1.504;2022-10-16T09:06:40;10.50;99.90
24410;DHT22;12543;53.364;-1.504;2022-10-16T09:22:55;11.30;99.90
24410;DHT22;12543;53.364;-1.504;2022-10-16T09:25:25;11.30;99.90
24410;DHT22;12543;53.364;-1.504;2022-10-16T09:27:53;11.30;99.90
24410;DHT22;12543;53.364;-1.504;2022-10-16T09:30:21;11.30;99.90
24410;DHT22;12543;53.364;-1.504;2022-10-16T09:32:51;11.30;99.90
24410;DHT22;12543;53.364;-1.504;2022-10-16T09:35:31;11.30;99.90
24410;DHT22;12543;53.364;-1.504;2022-10-16T09:37:59;11.30;99.90
24410;DHT22;12543;53.364;-1.504;2022-10-16T09:46:03;11.30;99.90
24410;DHT22;12543;53.364;-1.504;2022-10-16T09:48:43;11.30;99.90
24410;DHT22;12543;53.364;-1.504;2022-10-16T09:51:20;11.30;99.90
24410;DHT22;12543;53.364;-1.504;2022-10-16T09:53:49;11.40;99.90
24410;DHT22;12543;53.364;-1.504;2022-10-16T09:56:32;11.40;99.90
24410;DHT22;12543;53.364;-1.504;2022-10-16T09:59:22;11.40;99.90
24410;DHT22;12543;53.364;-1.504;2022-10-16T10:01:54;11.50;99.90
24410;DHT22;12543;53.364;-1.504;2022-10-16T10:04:24;11.50;99.90
24410;DHT22;12543;53.364;-1.504;2022-10-16T10:06:54;11.60;99.90
24410;DHT22;12543;53.364;-1.504;2022-10-16T10:09:48;11.70;99.90
24410;DHT22;12543;53.364;-1.504;2022-10-16T10:12:23;11.90;99.90
24410;DHT22;12543;53.364;-1.504;2022-10-16T10:15:04;12.00;99.90
24410;DHT22;12543;53.364;-1.504;2022-10-16T10:17:32;12.20;99.90
24410;DHT22;12543;53.364;-1.504;2022-10-16T10:20:00;12.30;99.90
24410;DHT22;12543;53.364;-1.504;2022-10-16T10:22:43;12.60;99.90
24410;DHT22;12543;53.364;-1.504;2022-10-16T10:43:50;17.20;99.90
24410;DHT22;12543;53.364;-1.504;2022-10-16T10:46:34;17.70;99.90
24410;DHT22;12543;53.364;-1.504;2022-10-16T10:57:29;19.60;99.90
24410;DHT22;12543;53.364;-1.504;2022-10-16T11:08:55;21.00;99.90
24410;DHT22;12543;53.364;-1.504;2022-10-16T11:14:41;21.30;99.90
24410;DHT22;12543;53.364;-1.504;2022-10-16T11:17:31;21.40;99.90
24410;DHT22;12543;53.364;-1.504;2022-10-16T11:25:55;20.70;99.90
24410;DHT22;12543;53.364;-1.504;2022-10-16T11:28:39;20.50;99.90
24410;DHT22;12543;53.364;-1.504;2022-10-16T11:31:38;20.30;99.90
24410;DHT22;12543;53.364;-1.504;2022-10-16T11:37:33;19.80;99.90
24410;DHT22;12543;53.364;-1.504;2022-10-16T11:39:40;19.60;99.90
24410;DHT22;12543;53.364;-1.504;2022-10-16T11:42:18;19.20;99.90
24410;DHT22;12543;53.364;-1.504;2022-10-16T11:45:13;18.90;99.90
24410;DHT22;12543;53.364;-1.504;2022-10-16T11:47:43;18.60;99.90
24410;DHT22;12543;53.364;-1.504;2022-10-16T11:50:38;18.40;99.90
24410;DHT22;12543;53.364;-1.504;2022-10-16T11:53:42;18.20;99.90
24410;DHT22;12543;53.364;-1.504;2022-10-16T11:56:15;18.00;99.90
24410;DHT22;12543;53.364;-1.504;2022-10-16T11:59:00;17.80;99.90
24410;DHT22;12543;53.364;-1.504;2022-10-16T12:01:40;17.60;99.90
24410;DHT22;12543;53.364;-1.504;2022-10-16T12:07:07;17.30;99.90
24410;DHT22;12543;53.364;-1.504;2022-10-16T12:09:40;17.10;99.90
24410;DHT22;12543;53.364;-1.504;2022-10-16T12:12:27;16.90;99.90
24410;DHT22;12543;53.364;-1.504;2022-10-16T12:15:24;16.80;99.90
24410;DHT22;12543;53.364;-1.504;2022-10-16T12:18:23;16.60;99.90
24410;DHT22;12543;53.364;-1.504;2022-10-16T12:20:56;16.40;99.90
24410;DHT22;12543;53.364;-1.504;2022-10-16T12:23:46;16.30;99.90
24410;DHT22;12543;53.364;-1.504;2022-10-16T12:26:14;16.20;99.90
24410;DHT22;12543;53.364;-1.504;2022-10-16T12:28:50;16.20;99.90
24410;DHT22;12543;53.364;-1.504;2022-10-16T12:31:18;16.10;99.90
24410;DHT22;12543;53.364;-1.504;2022-10-16T12:34:01;16.00;99.90
24410;DHT22;12543;53.364;-1.504;2022-10-16T12:36:35;16.00;99.90
24410;DHT22;12543;53.364;-1.504;2022-10-16T12:39:03;15.90;99.90
24410;DHT22;12543;53.364;-1.504;2022-10-16T12:41:32;15.90;99.90
24410;DHT22;12543;53.364;-1.504;2022-10-16T12:44:00;15.80;99.90
24410;DHT22;12543;53.364;-1.504;2022-10-16T12:51:57;15.70;99.90
24410;DHT22;12543;53.364;-1.504;2022-10-16T12:54:38;15.70;99.90
24410;DHT22;12543;53.364;-1.504;2022-10-16T13:05:54;15.50;99.90
24410;DHT22;12543;53.364;-1.504;2022-10-16T13:25:02;15.40;99.90
24410;DHT22;12543;53.364;-1.504;2022-10-16T13:30:19;15.40;99.90
24410;DHT22;12543;53.364;-1.504;2022-10-16T13:32:58;15.40;99.90
24410;DHT22;12543;53.364;-1.504;2022-10-16T13:35:29;15.40;99.90
24410;DHT22;12543;53.364;-1.504;2022-10-16T13:43:49;15.30;99.90
24410;DHT22;12543;53.364;-1.504;2022-10-16T13:46:21;15.20;99.90
24410;DHT22;12543;53.364;-1.504;2022-10-16T13:49:11;15.20;99.90
24410;DHT22;12543;53.364;-1.504;2022-10-16T13:51:38;15.20;99.90
24410;DHT22;12543;53.364;-1.504;2022-10-16T13:54:07;15.10;99.90
24410;DHT22;12543;53.364;-1.504;2022-10-16T13:56:36;15.10;99.90
24410;DHT22;12543;53.364;-1.504;2022-10-16T13:59:06;15.10;99.90
24410;DHT22;12543;53.364;-1.504;2022-10-16T14:01:41;15.00;99.90
24410;DHT22;12543;53.364;-1.504;2022-10-16T14:04:11;15.00;99.90
24410;DHT22;12543;53.364;-1.504;2022-10-16T14:06:46;15.00;99.90
24410;DHT22;12543;53.364;-1.504;2022-10-16T14:09:24;15.00;99.90
24410;DHT22;12543;53.364;-1.504;2022-10-16T14:12:06;15.00;99.90
24410;DHT22;12543;53.364;-1.504;2022-10-16T14:14:46;15.00;99.90
24410;DHT22;12543;53.364;-1.504;2022-10-16T14:19:49;15.00;99.90
24410;DHT22;12543;53.364;-1.504;2022-10-16T14:22:42;15.00;99.90
24410;DHT22;12543;53.364;-1.504;2022-10-16T14:28:04;14.90;99.90
24410;DHT22;12543;53.364;-1.504;2022-10-16T14:30:36;14.90;99.90
24410;DHT22;12543;53.364;-1.504;2022-10-16T14:33:18;14.80;99.90
24410;DHT22;12543;53.364;-1.504;2022-10-16T14:35:46;14.80;99.90
24410;DHT22;12543;53.364;-1.504;2022-10-16T14:38:26;14.80;99.90
24410;DHT22;12543;53.364;-1.504;2022-10-16T14:40:53;14.70;99.90
24410;DHT22;12543;53.364;-1.504;2022-10-16T14:43:31;14.70;99.90
24410;DHT22;12543;53.364;-1.504;2022-10-16T14:45:59;14.70;99.90
24410;DHT22;12543;53.364;-1.504;2022-10-16T14:48:27;14.70;99.90
24410;DHT22;12543;53.364;-1.504;2022-10-16T14:50:55;14.70;99.90
24410;DHT22;12543;53.364;-1.504;2022-10-16T14:53:22;14.70;99.90
24410;DHT22;12543;53.364;-1.504;2022-10-16T14:55:49;14.70;99.90
24410;DHT22;12543;53.364;-1.504;2022-10-16T14:58:22;14.60;99.90
24410;DHT22;12543;53.364;-1.504;2022-10-16T15:00:49;14.70;99.90
24410;DHT22;12543;53.364;-1.504;2022-10-16T15:03:16;14.60;99.90
24410;DHT22;12543;53.364;-1.504;2022-10-16T15:05:44;14.60;99.90
24410;DHT22;12543;53.364;-1.504;2022-10-16T15:08:11;14.60;99.90
24410;DHT22;12543;53.364;-1.504;2022-10-16T15:10:42;14.50;99.90
24410;DHT22;12543;53.364;-1.504;2022-10-16T15:13:13;14.50;99.90
24410;DHT22;12543;53.364;-1.504;2022-10-16T15:15:43;14.50;99.90
24410;DHT22;12543;53.364;-1.504;2022-10-16T15:18:11;14.50;99.90
24410;DHT22;12543;53.364;-1.504;2022-10-16T15:20:41;14.40;99.90
24410;DHT22;12543;53.364;-1.504;2022-10-16T15:23:20;14.40;99.90
24410;DHT22;12543;53.364;-1.504;2022-10-16T15:25:52;14.40;99.90
24410;DHT22;12543;53.364;-1.504;2022-10-16T15:28:21;14.40;99.90
24410;DHT22;12543;53.364;-1.504;2022-10-16T15:30:52;14.40;99.90
24410;DHT22;12543;53.364;-1.504;2022-10-16T15:33:25;14.40;99.90
24410;DHT22;12543;53.364;-1.504;2022-10-16T15:36:05;14.40;99.90
24410;DHT22;12543;53.364;-1.504;2022-10-16T15:38:33;14.40;99.90
24410;DHT22;12543;53.364;-1.504;2022-10-16T15:41:00;14.40;99.90
24410;DHT22;12543;53.364;-1.504;2022-10-16T15:43:27;14.30;99.90
24410;DHT22;12543;53.364;-1.504;2022-10-16T15:46:06;14.30;99.90
24410;DHT22;12543;53.364;-1.504;2022-10-16T15:48:33;14.30;99.90
24410;DHT22;12543;53.364;-1.504;2022-10-16T15:51:05;14.30;99.90
24410;DHT22;12543;53.364;-1.504;2022-10-16T15:53:32;14.30;99.90
24410;DHT22;12543;53.364;-1.504;2022-10-16T15:56:05;14.30;99.90
24410;DHT22;12543;53.364;-1.504;2022-10-16T15:58:32;14.30;99.90
24410;DHT22;12543;53.364;-1.504;2022-10-16T16:01:01;14.30;99.90
24410;DHT22;12543;53.364;-1.504;2022-10-16T16:03:28;14.30;99.90
24410;DHT22;12543;53.364;-1.504;2022-10-16T16:05:56;14.20;99.90
24410;DHT22;12543;53.364;-1.504;2022-10-16T16:08:23;14.20;99.90
24410;DHT22;12543;53.364;-1.504;2022-10-16T16:13:31;14.20;99.90
24410;DHT22;12543;53.364;-1.504;2022-10-16T16:15:58;14.10;99.90
24410;DHT22;12543;53.364;-1.504;2022-10-16T16:18:26;14.10;99.90
24410;DHT22;12543;53.364;-1.504;2022-10-16T16:20:55;14.10;99.90
24410;DHT22;12543;53.364;-1.504;2022-10-16T16:23:22;14.10;99.90
24410;DHT22;12543;53.364;-1.504;2022-10-16T16:26:13;14.10;99.90
24410;DHT22;12543;53.364;-1.504;2022-10-16T16:28:42;14.10;99.90
24410;DHT22;12543;53.364;-1.504;2022-10-16T16:31:09;14.10;99.90
24410;DHT22;12543;53.364;-1.504;2022-10-16T16:33:36;14.00;99.90
24410;DHT22;12543;53.364;-1.504;2022-10-16T16:36:05;14.00;99.90
24410;DHT22;12543;53.364;-1.504;2022-10-16T16:38:38;14.00;99.90
24410;DHT22;12543;53.364;-1.504;2022-10-16T16:41:23;14.00;99.90
24410;DHT22;12543;53.364;-1.504;2022-10-16T16:43:50;14.00;99.90
24410;DHT22;12543;53.364;-1.504;2022-10-16T16:46:21;14.00;99.90
24410;DHT22;12543;53.364;-1.504;2022-10-16T16:48:48;14.00;99.90
24410;DHT22;12543;53.364;-1.504;2022-10-16T16:51:20;14.00;99.90
24410;DHT22;12543;53.364;-1.504;2022-10-16T16:53:50;13.90;99.90
24410;DHT22;12543;53.364;-1.504;2022-10-16T16:56:19;13.90;99.90
24410;DHT22;12543;53.364;-1.504;2022-10-16T16:58:48;13.90;99.90
24410;DHT22;12543;53.364;-1.504;2022-10-16T17:01:15;13.90;99.90
24410;DHT22;12543;53.364;-1.504;2022-10-16T17:03:49;13.90;99.90
24410;DHT22;12543;53.364;-1.504;2022-10-16T17:06:22;13.80;99.90
24410;DHT22;12543;53.364;-1.504;2022-10-16T17:08:49;13.80;99.90
24410;DHT22;12543;53.364;-1.504;2022-10-16T17:11:20;13.80;99.90
24410;DHT22;12543;53.364;-1.504;2022-10-16T17:13:48;13.80;99.90
24410;DHT22;12543;53.364;-1.504;2022-10-16T17:16:28;13.80;99.90
24410;DHT22;12543;53.364;-1.504;2022-10-16T17:18:59;13.70;99.90
24410;DHT22;12543;53.364;-1.504;2022-10-16T17:21:26;13.70;99.90
24410;DHT22;12543;53.364;-1.504;2022-10-16T17:23:56;13.70;99.90
24410;DHT22;12543;53.364;-1.504;2022-10-16T17:26:24;13.60;99.90
24410;DHT22;12543;53.364;-1.504;2022-10-16T17:28:52;13.60;99.90
24410;DHT22;12543;53.364;-1.504;2022-10-16T17:31:23;13.60;99.90
24410;DHT22;12543;53.364;-1.504;2022-10-16T17:33:50;13.60;99.90
24410;DHT22;12543;53.364;-1.504;2022-10-16T17:36:19;13.60;99.90
24410;DHT22;12543;53.364;-1.504;2022-10-16T17:38:46;13.50;99.90
24410;DHT22;12543;53.364;-1.504;2022-10-16T17:41:23;13.50;99.90
24410;DHT22;12543;53.364;-1.504;2022-10-16T17:43:51;13.50;99.90
24410;DHT22;12543;53.364;-1.504;2022-10-16T17:46:21;13.50;99.90
24410;DHT22;12543;53.364;-1.504;2022-10-16T17:48:50;13.40;99.90
24410;DHT22;12543;53.364;-1.504;2022-10-16T17:51:23;13.40;99.90
24410;DHT22;12543;53.364;-1.504;2022-10-16T17:53:51;13.40;99.90
24410;DHT22;12543;53.364;-1.504;2022-10-16T17:56:19;13.40;99.90
24410;DHT22;12543;53.364;-1.504;2022-10-16T17:58:51;13.30;99.90
24410;DHT22;12543;53.364;-1.504;2022-10-16T18:01:23;13.30;99.90
24410;DHT22;12543;53.364;-1.504;2022-10-16T18:03:54;13.30;99.90
24410;DHT22;12543;53.364;-1.504;2022-10-16T18:06:21;13.20;99.90
24410;DHT22;12543;53.364;-1.504;2022-10-16T18:08:50;13.20;99.90